sensor_id;sensor_type;location;lat;lon;timestamp;P1;durP1;ratioP1;P2;durP2;ratioP2
64615;SDS011;51027;42.162;24.754;2023-11-19T00:00:09;4.25;;;2.15;;
64615;SDS011;51027;42.162;24.754;2023-11-19T00:02:40;4.80;;;1.98;;
64615;SDS011;51027;42.162;24.754;2023-11-19T00:05:07;2.95;;;2.15;;
64615;SDS011;51027;42.162;24.754;2023-11-19T00:07:36;3.67;;;2.00;;
64615;SDS011;51027;42.162;24.754;2023-11-19T00:10:07;4.35;;;2.25;;
64615;SDS011;51027;42.162;24.754;2023-11-19T00:12:37;7.80;;;2.70;;
64615;SDS011;51027;42.162;24.754;2023-11-19T00:15:05;6.10;;;1.98;;
64615;SDS011;51027;42.162;24.754;2023-11-19T00:17:31;4.72;;;2.15;;
64615;SDS011;51027;42.162;24.754;2023-11-19T00:19:57;2.22;;;1.63;;
64615;SDS011;51027;42.162;24.754;2023-11-19T00:22:22;3.35;;;1.33;;
64615;SDS011;51027;42.162;24.754;2023-11-19T00:24:48;3.83;;;1.92;;
64615;SDS011;51027;42.162;24.754;2023-11-19T00:27:13;5.25;;;2.10;;
64615;SDS011;51027;42.162;24.754;2023-11-19T00:29:39;2.03;;;1.10;;
64615;SDS011;51027;42.162;24.754;2023-11-19T00:32:05;2.00;;;1.30;;
64615;SDS011;51027;42.162;24.754;2023-11-19T00:34:31;5.07;;;1.63;;
64615;SDS011;51027;42.162;24.754;2023-11-19T00:36:57;2.70;;;1.48;;
64615;SDS011;51027;42.162;24.754;2023-11-19T00:39:22;1.70;;;1.50;;
64615;SDS011;51027;42.162;24.754;2023-11-19T00:41:48;3.38;;;2.03;;
64615;SDS011;51027;42.162;24.754;2023-11-19T00:44:13;2.70;;;1.90;;
64615;SDS011;51027;42.162;24.754;2023-11-19T00:46:39;5.97;;;1.98;;
64615;SDS011;51027;42.162;24.754;2023-11-19T00:49:04;2.47;;;1.75;;
64615;SDS011;51027;42.162;24.754;2023-11-19T00:51:30;3.20;;;1.92;;
64615;SDS011;51027;42.162;24.754;2023-11-19T00:53:56;5.55;;;2.03;;
64615;SDS011;51027;42.162;24.754;2023-11-19T00:56:22;4.63;;;2.28;;
64615;SDS011;51027;42.162;24.754;2023-11-19T00:58:48;4.93;;;2.08;;
64615;SDS011;51027;42.162;24.754;2023-11-19T01:01:13;4.82;;;2.10;;
64615;SDS011;51027;42.162;24.754;2023-11-19T01:03:39;6.22;;;2.55;;
64615;SDS011;51027;42.162;24.754;2023-11-19T01:06:04;4.82;;;1.95;;
64615;SDS011;51027;42.162;24.754;2023-11-19T01:08:30;1.77;;;1.60;;
64615;SDS011;51027;42.162;24.754;2023-11-19T01:10:58;3.95;;;2.05;;
64615;SDS011;51027;42.162;24.754;2023-11-19T01:13:25;3.83;;;2.20;;
64615;SDS011;51027;42.162;24.754;2023-11-19T01:15:50;4.80;;;2.10;;
64615;SDS011;51027;42.162;24.754;2023-11-19T01:18:15;3.50;;;1.92;;
64615;SDS011;51027;42.162;24.754;2023-11-19T01:20:41;3.50;;;1.90;;
64615;SDS011;51027;42.162;24.754;2023-11-19T01:23:07;4.63;;;2.15;;
64615;SDS011;51027;42.162;24.754;2023-11-19T01:25:32;2.58;;;1.35;;
64615;SDS011;51027;42.162;24.754;2023-11-19T01:27:59;3.22;;;2.00;;
64615;SDS011;51027;42.162;24.754;2023-11-19T01:30:24;4.60;;;2.40;;
64615;SDS011;51027;42.162;24.754;2023-11-19T01:32:50;3.05;;;1.75;;
64615;SDS011;51027;42.162;24.754;2023-11-19T01:35:16;3.58;;;1.63;;
64615;SDS011;51027;42.162;24.754;2023-11-19T01:37:41;3.00;;;2.13;;
64615;SDS011;51027;42.162;24.754;2023-11-19T01:40:07;4.93;;;2.38;;
64615;SDS011;51027;42.162;24.754;2023-11-19T01:42:36;5.60;;;2.40;;
64615;SDS011;51027;42.162;24.754;2023-11-19T01:45:03;3.30;;;2.10;;
64615;SDS011;51027;42.162;24.754;2023-11-19T01:47:31;3.33;;;2.13;;
64615;SDS011;51027;42.162;24.754;2023-11-19T01:49:57;5.35;;;2.22;;
64615;SDS011;51027;42.162;24.754;2023-11-19T01:52:24;3.10;;;2.00;;
64615;SDS011;51027;42.162;24.754;2023-11-19T01:54:51;8.00;;;2.70;;
64615;SDS011;51027;42.162;24.754;2023-11-19T01:57:18;4.30;;;1.90;;
64615;SDS011;51027;42.162;24.754;2023-11-19T01:59:47;5.32;;;2.50;;
64615;SDS011;51027;42.162;24.754;2023-11-19T02:02:14;4.03;;;2.00;;
64615;SDS011;51027;42.162;24.754;2023-11-19T02:04:40;5.43;;;2.25;;
64615;SDS011;51027;42.162;24.754;2023-11-19T02:07:06;4.47;;;2.00;;
64615;SDS011;51027;42.162;24.754;2023-11-19T02:09:32;6.40;;;2.30;;
64615;SDS011;51027;42.162;24.754;2023-11-19T02:11:58;7.20;;;2.70;;
64615;SDS011;51027;42.162;24.754;2023-11-19T02:14:24;5.95;;;2.67;;
64615;SDS011;51027;42.162;24.754;2023-11-19T02:16:51;8.85;;;2.97;;
64615;SDS011;51027;42.162;24.754;2023-11-19T02:19:19;12.55;;;4.57;;
64615;SDS011;51027;42.162;24.754;2023-11-19T02:21:44;13.00;;;4.35;;
64615;SDS011;51027;42.162;24.754;2023-11-19T02:24:10;6.63;;;2.58;;
64615;SDS011;51027;42.162;24.754;2023-11-19T02:26:40;6.90;;;2.40;;
64615;SDS011;51027;42.162;24.754;2023-11-19T02:29:09;6.10;;;2.80;;
64615;SDS011;51027;42.162;24.754;2023-11-19T02:31:35;7.53;;;3.33;;
64615;SDS011;51027;42.162;24.754;2023-11-19T02:34:01;9.98;;;3.60;;
64615;SDS011;51027;42.162;24.754;2023-11-19T02:36:27;8.57;;;3.00;;
64615;SDS011;51027;42.162;24.754;2023-11-19T02:38:53;8.30;;;3.22;;
64615;SDS011;51027;42.162;24.754;2023-11-19T02:41:18;6.57;;;2.60;;
64615;SDS011;51027;42.162;24.754;2023-11-19T02:43:44;7.45;;;2.92;;
64615;SDS011;51027;42.162;24.754;2023-11-19T02:46:09;6.00;;;2.63;;
64615;SDS011;51027;42.162;24.754;2023-11-19T02:48:36;8.27;;;3.22;;
64615;SDS011;51027;42.162;24.754;2023-11-19T02:51:02;8.48;;;3.63;;
64615;SDS011;51027;42.162;24.754;2023-11-19T02:53:34;9.50;;;3.45;;
64615;SDS011;51027;42.162;24.754;2023-11-19T02:56:00;5.57;;;2.53;;
64615;SDS011;51027;42.162;24.754;2023-11-19T02:58:37;3.80;;;2.10;;
64615;SDS011;51027;42.162;24.754;2023-11-19T03:01:03;6.32;;;2.83;;
64615;SDS011;51027;42.162;24.754;2023-11-19T03:03:37;11.32;;;4.18;;
64615;SDS011;51027;42.162;24.754;2023-11-19T03:06:05;11.82;;;3.67;;
64615;SDS011;51027;42.162;24.754;2023-11-19T03:08:32;12.43;;;4.55;;
64615;SDS011;51027;42.162;24.754;2023-11-19T03:11:00;9.02;;;3.65;;
64615;SDS011;51027;42.162;24.754;2023-11-19T03:13:25;8.30;;;3.20;;
64615;SDS011;51027;42.162;24.754;2023-11-19T03:15:52;9.98;;;3.38;;
64615;SDS011;51027;42.162;24.754;2023-11-19T03:18:18;6.32;;;2.72;;
64615;SDS011;51027;42.162;24.754;2023-11-19T03:20:45;7.13;;;2.67;;
64615;SDS011;51027;42.162;24.754;2023-11-19T03:23:12;7.03;;;3.03;;
64615;SDS011;51027;42.162;24.754;2023-11-19T03:25:37;7.30;;;3.20;;
64615;SDS011;51027;42.162;24.754;2023-11-19T03:28:04;5.82;;;2.80;;
64615;SDS011;51027;42.162;24.754;2023-11-19T03:30:30;8.15;;;3.22;;
64615;SDS011;51027;42.162;24.754;2023-11-19T03:32:56;9.00;;;3.10;;
64615;SDS011;51027;42.162;24.754;2023-11-19T03:35:22;5.68;;;2.75;;
64615;SDS011;51027;42.162;24.754;2023-11-19T03:37:48;6.13;;;2.50;;
64615;SDS011;51027;42.162;24.754;2023-11-19T03:40:14;5.97;;;2.85;;
64615;SDS011;51027;42.162;24.754;2023-11-19T03:42:40;4.53;;;2.20;;
64615;SDS011;51027;42.162;24.754;2023-11-19T03:45:06;5.90;;;2.53;;
64615;SDS011;51027;42.162;24.754;2023-11-19T03:47:35;4.70;;;2.22;;
64615;SDS011;51027;42.162;24.754;2023-11-19T03:50:01;6.35;;;2.78;;
64615;SDS011;51027;42.162;24.754;2023-11-19T03:52:27;8.00;;;2.88;;
64615;SDS011;51027;42.162;24.754;2023-11-19T03:54:54;6.13;;;2.40;;
64615;SDS011;51027;42.162;24.754;2023-11-19T03:57:20;5.97;;;2.80;;
64615;SDS011;51027;42.162;24.754;2023-11-19T03:59:46;8.27;;;2.97;;
64615;SDS011;51027;42.162;24.754;2023-11-19T04:02:12;8.55;;;3.15;;
64615;SDS011;51027;42.162;24.754;2023-11-19T04:04:37;8.23;;;3.22;;
64615;SDS011;51027;42.162;24.754;2023-11-19T04:07:04;5.67;;;2.50;;
64615;SDS011;51027;42.162;24.754;2023-11-19T04:09:30;9.07;;;3.08;;
64615;SDS011;51027;42.162;24.754;2023-11-19T04:11:58;6.90;;;2.75;;
64615;SDS011;51027;42.162;24.754;2023-11-19T04:14:24;6.97;;;2.85;;
64615;SDS011;51027;42.162;24.754;2023-11-19T04:16:50;5.63;;;2.90;;
64615;SDS011;51027;42.162;24.754;2023-11-19T04:19:16;6.45;;;2.38;;
64615;SDS011;51027;42.162;24.754;2023-11-19T04:21:42;8.57;;;3.45;;
64615;SDS011;51027;42.162;24.754;2023-11-19T04:24:08;6.15;;;2.72;;
64615;SDS011;51027;42.162;24.754;2023-11-19T04:26:40;3.38;;;1.73;;
64615;SDS011;51027;42.162;24.754;2023-11-19T04:29:08;7.88;;;3.42;;
64615;SDS011;51027;42.162;24.754;2023-11-19T04:31:34;6.03;;;2.40;;
64615;SDS011;51027;42.162;24.754;2023-11-19T04:33:59;8.30;;;3.50;;
64615;SDS011;51027;42.162;24.754;2023-11-19T04:36:25;4.80;;;1.95;;
64615;SDS011;51027;42.162;24.754;2023-11-19T04:38:51;4.65;;;2.08;;
64615;SDS011;51027;42.162;24.754;2023-11-19T04:41:16;5.05;;;2.35;;
64615;SDS011;51027;42.162;24.754;2023-11-19T04:43:42;6.90;;;2.65;;
64615;SDS011;51027;42.162;24.754;2023-11-19T04:46:09;5.00;;;2.20;;
64615;SDS011;51027;42.162;24.754;2023-11-19T04:48:34;5.18;;;2.35;;
64615;SDS011;51027;42.162;24.754;2023-11-19T04:51:00;4.15;;;2.05;;
64615;SDS011;51027;42.162;24.754;2023-11-19T04:53:25;4.53;;;2.47;;
64615;SDS011;51027;42.162;24.754;2023-11-19T04:55:51;7.15;;;2.33;;
64615;SDS011;51027;42.162;24.754;2023-11-19T04:58:17;3.50;;;2.05;;
64615;SDS011;51027;42.162;24.754;2023-11-19T05:00:42;7.78;;;2.55;;
64615;SDS011;51027;42.162;24.754;2023-11-19T05:03:08;4.60;;;2.55;;
64615;SDS011;51027;42.162;24.754;2023-11-19T05:05:33;6.20;;;2.58;;
64615;SDS011;51027;42.162;24.754;2023-11-19T05:07:59;7.38;;;2.60;;
64615;SDS011;51027;42.162;24.754;2023-11-19T05:10:24;8.85;;;2.95;;
64615;SDS011;51027;42.162;24.754;2023-11-19T05:12:50;9.38;;;3.22;;
64615;SDS011;51027;42.162;24.754;2023-11-19T05:15:16;7.30;;;3.08;;
64615;SDS011;51027;42.162;24.754;2023-11-19T05:17:42;9.00;;;3.35;;
64615;SDS011;51027;42.162;24.754;2023-11-19T05:20:08;8.43;;;3.03;;
64615;SDS011;51027;42.162;24.754;2023-11-19T05:22:39;10.50;;;3.63;;
64615;SDS011;51027;42.162;24.754;2023-11-19T05:25:05;6.22;;;2.72;;
64615;SDS011;51027;42.162;24.754;2023-11-19T05:27:31;8.85;;;3.95;;
64615;SDS011;51027;42.162;24.754;2023-11-19T05:29:57;7.78;;;3.45;;
64615;SDS011;51027;42.162;24.754;2023-11-19T05:32:22;7.00;;;2.97;;
64615;SDS011;51027;42.162;24.754;2023-11-19T05:34:48;6.63;;;2.55;;
64615;SDS011;51027;42.162;24.754;2023-11-19T05:37:13;7.80;;;3.05;;
64615;SDS011;51027;42.162;24.754;2023-11-19T05:39:39;5.15;;;2.53;;
64615;SDS011;51027;42.162;24.754;2023-11-19T05:42:05;8.48;;;3.17;;
64615;SDS011;51027;42.162;24.754;2023-11-19T05:44:30;9.05;;;3.58;;
64615;SDS011;51027;42.162;24.754;2023-11-19T05:46:56;10.48;;;3.53;;
64615;SDS011;51027;42.162;24.754;2023-11-19T05:49:21;7.93;;;3.20;;
64615;SDS011;51027;42.162;24.754;2023-11-19T05:51:47;6.72;;;3.03;;
64615;SDS011;51027;42.162;24.754;2023-11-19T05:54:12;8.57;;;3.25;;
64615;SDS011;51027;42.162;24.754;2023-11-19T05:56:38;11.13;;;4.10;;
64615;SDS011;51027;42.162;24.754;2023-11-19T05:59:04;8.75;;;3.55;;
64615;SDS011;51027;42.162;24.754;2023-11-19T06:01:33;8.60;;;3.50;;
64615;SDS011;51027;42.162;24.754;2023-11-19T06:03:59;8.93;;;2.75;;
64615;SDS011;51027;42.162;24.754;2023-11-19T06:06:26;12.13;;;3.35;;
64615;SDS011;51027;42.162;24.754;2023-11-19T06:08:52;7.75;;;3.08;;
64615;SDS011;51027;42.162;24.754;2023-11-19T06:11:17;6.15;;;2.42;;
64615;SDS011;51027;42.162;24.754;2023-11-19T06:13:45;9.23;;;3.38;;
64615;SDS011;51027;42.162;24.754;2023-11-19T06:16:11;15.50;;;4.47;;
64615;SDS011;51027;42.162;24.754;2023-11-19T06:18:37;9.18;;;3.88;;
64615;SDS011;51027;42.162;24.754;2023-11-19T06:21:02;7.63;;;3.13;;
64615;SDS011;51027;42.162;24.754;2023-11-19T06:23:28;10.63;;;3.30;;
64615;SDS011;51027;42.162;24.754;2023-11-19T06:25:54;4.88;;;2.38;;
64615;SDS011;51027;42.162;24.754;2023-11-19T06:28:19;8.27;;;2.65;;
64615;SDS011;51027;42.162;24.754;2023-11-19T06:30:44;5.35;;;2.22;;
64615;SDS011;51027;42.162;24.754;2023-11-19T06:33:13;3.03;;;1.95;;
64615;SDS011;51027;42.162;24.754;2023-11-19T06:35:39;7.07;;;3.05;;
64615;SDS011;51027;42.162;24.754;2023-11-19T06:38:05;5.43;;;2.65;;
64615;SDS011;51027;42.162;24.754;2023-11-19T06:40:31;5.05;;;2.40;;
64615;SDS011;51027;42.162;24.754;2023-11-19T06:42:58;7.82;;;3.10;;
64615;SDS011;51027;42.162;24.754;2023-11-19T06:45:23;8.10;;;3.08;;
64615;SDS011;51027;42.162;24.754;2023-11-19T06:47:49;6.55;;;2.65;;
64615;SDS011;51027;42.162;24.754;2023-11-19T06:50:15;7.93;;;2.80;;
64615;SDS011;51027;42.162;24.754;2023-11-19T06:52:44;7.90;;;2.78;;
64615;SDS011;51027;42.162;24.754;2023-11-19T06:55:10;7.72;;;2.88;;
64615;SDS011;51027;42.162;24.754;2023-11-19T06:57:36;8.48;;;2.90;;
64615;SDS011;51027;42.162;24.754;2023-11-19T07:00:02;8.25;;;2.95;;
64615;SDS011;51027;42.162;24.754;2023-11-19T07:02:28;9.75;;;3.15;;
64615;SDS011;51027;42.162;24.754;2023-11-19T07:04:53;9.82;;;3.08;;
64615;SDS011;51027;42.162;24.754;2023-11-19T07:07:19;11.80;;;3.05;;
64615;SDS011;51027;42.162;24.754;2023-11-19T07:09:45;8.55;;;3.38;;
64615;SDS011;51027;42.162;24.754;2023-11-19T07:12:10;11.07;;;3.20;;
64615;SDS011;51027;42.162;24.754;2023-11-19T07:14:36;9.10;;;3.05;;
64615;SDS011;51027;42.162;24.754;2023-11-19T07:17:01;8.20;;;3.10;;
64615;SDS011;51027;42.162;24.754;2023-11-19T07:19:27;7.75;;;2.95;;
64615;SDS011;51027;42.162;24.754;2023-11-19T07:21:52;10.48;;;3.13;;
64615;SDS011;51027;42.162;24.754;2023-11-19T07:24:19;8.63;;;2.95;;
64615;SDS011;51027;42.162;24.754;2023-11-19T07:26:46;7.95;;;3.05;;
64615;SDS011;51027;42.162;24.754;2023-11-19T07:29:13;5.22;;;2.63;;
64615;SDS011;51027;42.162;24.754;2023-11-19T07:31:40;7.20;;;2.40;;
64615;SDS011;51027;42.162;24.754;2023-11-19T07:34:05;7.97;;;2.70;;
64615;SDS011;51027;42.162;24.754;2023-11-19T07:36:31;3.70;;;2.03;;
64615;SDS011;51027;42.162;24.754;2023-11-19T07:38:57;9.88;;;2.80;;
64615;SDS011;51027;42.162;24.754;2023-11-19T07:41:23;6.85;;;2.58;;
64615;SDS011;51027;42.162;24.754;2023-11-19T07:43:50;11.55;;;3.08;;
64615;SDS011;51027;42.162;24.754;2023-11-19T07:46:16;6.18;;;2.50;;
64615;SDS011;51027;42.162;24.754;2023-11-19T07:48:44;5.53;;;2.28;;
64615;SDS011;51027;42.162;24.754;2023-11-19T07:51:12;9.98;;;3.38;;
64615;SDS011;51027;42.162;24.754;2023-11-19T07:53:38;6.85;;;2.42;;
64615;SDS011;51027;42.162;24.754;2023-11-19T07:56:04;4.50;;;1.90;;
64615;SDS011;51027;42.162;24.754;2023-11-19T07:58:30;12.75;;;4.50;;
64615;SDS011;51027;42.162;24.754;2023-11-19T08:00:56;6.60;;;2.65;;
64615;SDS011;51027;42.162;24.754;2023-11-19T08:03:21;6.00;;;3.03;;
64615;SDS011;51027;42.162;24.754;2023-11-19T08:05:47;6.53;;;2.25;;
64615;SDS011;51027;42.162;24.754;2023-11-19T08:08:13;6.18;;;2.38;;
64615;SDS011;51027;42.162;24.754;2023-11-19T08:10:38;5.28;;;2.28;;
64615;SDS011;51027;42.162;24.754;2023-11-19T08:13:05;4.15;;;2.17;;
64615;SDS011;51027;42.162;24.754;2023-11-19T08:15:31;7.13;;;2.80;;
64615;SDS011;51027;42.162;24.754;2023-11-19T08:17:57;7.63;;;3.13;;
64615;SDS011;51027;42.162;24.754;2023-11-19T08:20:22;4.75;;;2.40;;
64615;SDS011;51027;42.162;24.754;2023-11-19T08:22:48;4.60;;;2.70;;
64615;SDS011;51027;42.162;24.754;2023-11-19T08:25:14;5.50;;;2.58;;
64615;SDS011;51027;42.162;24.754;2023-11-19T08:27:39;5.15;;;2.20;;
64615;SDS011;51027;42.162;24.754;2023-11-19T08:30:05;7.47;;;3.17;;
64615;SDS011;51027;42.162;24.754;2023-11-19T08:32:31;4.78;;;2.42;;
64615;SDS011;51027;42.162;24.754;2023-11-19T08:34:57;3.20;;;1.95;;
64615;SDS011;51027;42.162;24.754;2023-11-19T08:37:22;7.68;;;2.65;;
64615;SDS011;51027;42.162;24.754;2023-11-19T08:39:48;5.95;;;2.50;;
64615;SDS011;51027;42.162;24.754;2023-11-19T08:42:14;8.95;;;2.90;;
64615;SDS011;51027;42.162;24.754;2023-11-19T08:44:40;9.98;;;3.30;;
64615;SDS011;51027;42.162;24.754;2023-11-19T08:47:09;5.05;;;2.30;;
64615;SDS011;51027;42.162;24.754;2023-11-19T08:49:36;8.23;;;2.90;;
64615;SDS011;51027;42.162;24.754;2023-11-19T08:52:01;7.60;;;3.10;;
64615;SDS011;51027;42.162;24.754;2023-11-19T08:54:27;8.45;;;3.25;;
64615;SDS011;51027;42.162;24.754;2023-11-19T08:56:52;10.15;;;3.33;;
64615;SDS011;51027;42.162;24.754;2023-11-19T08:59:18;5.28;;;2.55;;
64615;SDS011;51027;42.162;24.754;2023-11-19T09:01:44;3.75;;;2.00;;
64615;SDS011;51027;42.162;24.754;2023-11-19T09:04:10;9.18;;;3.20;;
64615;SDS011;51027;42.162;24.754;2023-11-19T09:06:36;6.75;;;3.10;;
64615;SDS011;51027;42.162;24.754;2023-11-19T09:09:01;5.60;;;2.90;;
64615;SDS011;51027;42.162;24.754;2023-11-19T09:11:30;8.05;;;2.67;;
64615;SDS011;51027;42.162;24.754;2023-11-19T09:13:56;9.20;;;2.88;;
64615;SDS011;51027;42.162;24.754;2023-11-19T09:16:22;4.47;;;2.20;;
64615;SDS011;51027;42.162;24.754;2023-11-19T09:18:47;7.00;;;3.03;;
64615;SDS011;51027;42.162;24.754;2023-11-19T09:21:13;10.93;;;3.83;;
64615;SDS011;51027;42.162;24.754;2023-11-19T09:23:38;7.32;;;2.97;;
64615;SDS011;51027;42.162;24.754;2023-11-19T09:26:05;6.40;;;2.70;;
64615;SDS011;51027;42.162;24.754;2023-11-19T09:28:31;4.90;;;2.30;;
64615;SDS011;51027;42.162;24.754;2023-11-19T09:30:57;5.55;;;2.60;;
64615;SDS011;51027;42.162;24.754;2023-11-19T09:33:24;6.90;;;2.72;;
64615;SDS011;51027;42.162;24.754;2023-11-19T09:35:49;5.03;;;2.25;;
64615;SDS011;51027;42.162;24.754;2023-11-19T09:38:15;5.22;;;2.55;;
64615;SDS011;51027;42.162;24.754;2023-11-19T09:40:42;8.73;;;3.20;;
64615;SDS011;51027;42.162;24.754;2023-11-19T09:43:07;5.43;;;2.40;;
64615;SDS011;51027;42.162;24.754;2023-11-19T09:45:37;6.55;;;2.78;;
64615;SDS011;51027;42.162;24.754;2023-11-19T09:48:13;8.35;;;2.90;;
64615;SDS011;51027;42.162;24.754;2023-11-19T09:50:41;9.60;;;3.10;;
64615;SDS011;51027;42.162;24.754;2023-11-19T09:53:07;8.45;;;2.90;;
64615;SDS011;51027;42.162;24.754;2023-11-19T09:55:33;8.40;;;3.20;;
64615;SDS011;51027;42.162;24.754;2023-11-19T09:57:58;7.60;;;3.15;;
64615;SDS011;51027;42.162;24.754;2023-11-19T10:00:26;8.63;;;3.17;;
64615;SDS011;51027;42.162;24.754;2023-11-19T10:02:52;12.13;;;3.70;;
64615;SDS011;51027;42.162;24.754;2023-11-19T10:05:20;6.75;;;2.70;;
64615;SDS011;51027;42.162;24.754;2023-11-19T10:07:46;7.90;;;2.72;;
64615;SDS011;51027;42.162;24.754;2023-11-19T10:10:12;9.25;;;3.40;;
64615;SDS011;51027;42.162;24.754;2023-11-19T10:12:53;7.75;;;3.17;;
64615;SDS011;51027;42.162;24.754;2023-11-19T10:17:58;11.77;;;3.88;;
64615;SDS011;51027;42.162;24.754;2023-11-19T10:20:23;9.68;;;3.33;;
64615;SDS011;51027;42.162;24.754;2023-11-19T10:22:52;9.50;;;3.53;;
64615;SDS011;51027;42.162;24.754;2023-11-19T10:30:23;8.55;;;3.30;;
64615;SDS011;51027;42.162;24.754;2023-11-19T10:33:13;8.32;;;2.80;;
64615;SDS011;51027;42.162;24.754;2023-11-19T10:35:54;7.35;;;3.00;;
64615;SDS011;51027;42.162;24.754;2023-11-19T10:38:23;7.43;;;2.90;;
64615;SDS011;51027;42.162;24.754;2023-11-19T10:40:50;7.35;;;2.92;;
64615;SDS011;51027;42.162;24.754;2023-11-19T10:43:20;8.00;;;3.00;;
64615;SDS011;51027;42.162;24.754;2023-11-19T10:45:49;8.90;;;3.63;;
64615;SDS011;51027;42.162;24.754;2023-11-19T10:48:15;10.65;;;3.72;;
64615;SDS011;51027;42.162;24.754;2023-11-19T10:50:42;7.47;;;3.25;;
64615;SDS011;51027;42.162;24.754;2023-11-19T10:53:11;8.48;;;2.78;;
64615;SDS011;51027;42.162;24.754;2023-11-19T10:55:40;10.18;;;3.38;;
64615;SDS011;51027;42.162;24.754;2023-11-19T10:58:07;8.00;;;3.20;;
64615;SDS011;51027;42.162;24.754;2023-11-19T11:03:21;8.73;;;3.33;;
64615;SDS011;51027;42.162;24.754;2023-11-19T11:05:50;11.65;;;3.67;;
64615;SDS011;51027;42.162;24.754;2023-11-19T11:08:17;7.93;;;2.97;;
64615;SDS011;51027;42.162;24.754;2023-11-19T11:10:53;7.57;;;2.72;;
64615;SDS011;51027;42.162;24.754;2023-11-19T11:13:22;9.43;;;3.05;;
64615;SDS011;51027;42.162;24.754;2023-11-19T11:15:49;9.02;;;3.35;;
64615;SDS011;51027;42.162;24.754;2023-11-19T11:18:15;7.75;;;2.80;;
64615;SDS011;51027;42.162;24.754;2023-11-19T11:20:44;7.07;;;2.53;;
64615;SDS011;51027;42.162;24.754;2023-11-19T11:31:43;9.20;;;2.97;;
64615;SDS011;51027;42.162;24.754;2023-11-19T11:39:33;7.50;;;2.90;;
64615;SDS011;51027;42.162;24.754;2023-11-19T11:58:12;8.45;;;3.30;;
64615;SDS011;51027;42.162;24.754;2023-11-19T12:00:39;7.80;;;2.90;;
64615;SDS011;51027;42.162;24.754;2023-11-19T12:03:07;7.63;;;2.63;;
64615;SDS011;51027;42.162;24.754;2023-11-19T12:05:33;5.85;;;2.55;;
64615;SDS011;51027;42.162;24.754;2023-11-19T12:08:04;8.82;;;2.75;;
64615;SDS011;51027;42.162;24.754;2023-11-19T12:10:33;10.02;;;3.75;;
64615;SDS011;51027;42.162;24.754;2023-11-19T12:13:02;8.25;;;2.88;;
64615;SDS011;51027;42.162;24.754;2023-11-19T12:15:33;7.13;;;2.85;;
64615;SDS011;51027;42.162;24.754;2023-11-19T12:17:58;9.40;;;3.60;;
64615;SDS011;51027;42.162;24.754;2023-11-19T12:20:24;9.68;;;3.10;;
64615;SDS011;51027;42.162;24.754;2023-11-19T12:22:51;5.38;;;2.58;;
64615;SDS011;51027;42.162;24.754;2023-11-19T12:25:19;2.83;;;2.03;;
64615;SDS011;51027;42.162;24.754;2023-11-19T12:27:49;8.45;;;2.85;;
64615;SDS011;51027;42.162;24.754;2023-11-19T12:30:24;6.13;;;2.78;;
64615;SDS011;51027;42.162;24.754;2023-11-19T12:32:51;6.72;;;2.97;;
64615;SDS011;51027;42.162;24.754;2023-11-19T12:35:18;9.00;;;3.00;;
64615;SDS011;51027;42.162;24.754;2023-11-19T12:40:17;7.38;;;2.72;;
64615;SDS011;51027;42.162;24.754;2023-11-19T12:42:51;6.00;;;2.88;;
64615;SDS011;51027;42.162;24.754;2023-11-19T12:45:18;8.73;;;2.95;;
64615;SDS011;51027;42.162;24.754;2023-11-19T12:47:45;8.68;;;3.20;;
64615;SDS011;51027;42.162;24.754;2023-11-19T12:50:13;7.45;;;3.05;;
64615;SDS011;51027;42.162;24.754;2023-11-19T12:52:38;8.00;;;3.17;;
64615;SDS011;51027;42.162;24.754;2023-11-19T12:55:05;7.80;;;2.78;;
64615;SDS011;51027;42.162;24.754;2023-11-19T12:57:51;7.88;;;3.15;;
64615;SDS011;51027;42.162;24.754;2023-11-19T13:00:20;10.30;;;3.67;;
64615;SDS011;51027;42.162;24.754;2023-11-19T13:02:51;6.55;;;3.10;;
64615;SDS011;51027;42.162;24.754;2023-11-19T13:08:07;6.05;;;2.63;;
64615;SDS011;51027;42.162;24.754;2023-11-19T13:10:34;8.10;;;3.15;;
64615;SDS011;51027;42.162;24.754;2023-11-19T13:13:14;12.93;;;4.00;;
64615;SDS011;51027;42.162;24.754;2023-11-19T13:15:40;7.40;;;3.20;;
64615;SDS011;51027;42.162;24.754;2023-11-19T13:18:05;11.63;;;3.72;;
64615;SDS011;51027;42.162;24.754;2023-11-19T13:20:31;11.40;;;3.83;;
64615;SDS011;51027;42.162;24.754;2023-11-19T13:22:58;9.63;;;3.42;;
64615;SDS011;51027;42.162;24.754;2023-11-19T13:25:28;9.95;;;3.30;;
64615;SDS011;51027;42.162;24.754;2023-11-19T13:27:54;10.30;;;3.35;;
64615;SDS011;51027;42.162;24.754;2023-11-19T13:30:23;11.70;;;3.78;;
64615;SDS011;51027;42.162;24.754;2023-11-19T13:32:50;9.77;;;3.72;;
64615;SDS011;51027;42.162;24.754;2023-11-19T13:35:16;8.95;;;2.80;;
64615;SDS011;51027;42.162;24.754;2023-11-19T13:37:43;9.15;;;3.00;;
64615;SDS011;51027;42.162;24.754;2023-11-19T13:40:09;7.95;;;2.92;;
64615;SDS011;51027;42.162;24.754;2023-11-19T13:42:38;9.50;;;3.72;;
64615;SDS011;51027;42.162;24.754;2023-11-19T13:45:13;9.33;;;3.33;;
64615;SDS011;51027;42.162;24.754;2023-11-19T13:47:43;11.05;;;3.75;;
64615;SDS011;51027;42.162;24.754;2023-11-19T13:50:09;8.38;;;3.50;;
64615;SDS011;51027;42.162;24.754;2023-11-19T13:52:37;8.90;;;3.30;;
64615;SDS011;51027;42.162;24.754;2023-11-19T13:55:07;10.07;;;3.78;;
64615;SDS011;51027;42.162;24.754;2023-11-19T14:00:06;10.20;;;3.17;;
64615;SDS011;51027;42.162;24.754;2023-11-19T14:02:41;10.63;;;3.78;;
64615;SDS011;51027;42.162;24.754;2023-11-19T14:05:08;10.18;;;3.47;;
64615;SDS011;51027;42.162;24.754;2023-11-19T14:07:34;11.98;;;4.10;;
64615;SDS011;51027;42.162;24.754;2023-11-19T14:10:00;12.60;;;4.40;;
64615;SDS011;51027;42.162;24.754;2023-11-19T14:12:25;6.95;;;2.97;;
64615;SDS011;51027;42.162;24.754;2023-11-19T14:14:51;7.90;;;3.22;;
64615;SDS011;51027;42.162;24.754;2023-11-19T14:17:16;10.30;;;3.70;;
64615;SDS011;51027;42.162;24.754;2023-11-19T14:19:42;8.88;;;3.45;;
64615;SDS011;51027;42.162;24.754;2023-11-19T14:22:09;9.25;;;3.33;;
64615;SDS011;51027;42.162;24.754;2023-11-19T14:24:34;11.48;;;3.72;;
64615;SDS011;51027;42.162;24.754;2023-11-19T14:27:00;11.38;;;3.72;;
64615;SDS011;51027;42.162;24.754;2023-11-19T14:29:26;13.07;;;4.50;;
64615;SDS011;51027;42.162;24.754;2023-11-19T14:31:54;13.77;;;4.28;;
64615;SDS011;51027;42.162;24.754;2023-11-19T14:34:20;10.85;;;3.63;;
64615;SDS011;51027;42.162;24.754;2023-11-19T14:36:46;13.65;;;4.57;;
64615;SDS011;51027;42.162;24.754;2023-11-19T14:39:12;11.75;;;3.97;;
64615;SDS011;51027;42.162;24.754;2023-11-19T14:41:38;12.75;;;4.20;;
64615;SDS011;51027;42.162;24.754;2023-11-19T14:44:04;13.45;;;4.68;;
64615;SDS011;51027;42.162;24.754;2023-11-19T14:46:29;16.02;;;4.70;;
64615;SDS011;51027;42.162;24.754;2023-11-19T14:48:55;13.95;;;4.25;;
64615;SDS011;51027;42.162;24.754;2023-11-19T14:51:20;10.85;;;4.38;;
64615;SDS011;51027;42.162;24.754;2023-11-19T14:53:46;12.07;;;3.95;;
64615;SDS011;51027;42.162;24.754;2023-11-19T14:56:12;9.23;;;3.80;;
64615;SDS011;51027;42.162;24.754;2023-11-19T14:58:38;14.55;;;4.78;;
64615;SDS011;51027;42.162;24.754;2023-11-19T15:01:04;13.75;;;4.40;;
64615;SDS011;51027;42.162;24.754;2023-11-19T15:03:30;13.98;;;4.55;;
64615;SDS011;51027;42.162;24.754;2023-11-19T15:05:55;12.70;;;5.13;;
64615;SDS011;51027;42.162;24.754;2023-11-19T15:08:21;11.85;;;4.38;;
64615;SDS011;51027;42.162;24.754;2023-11-19T15:10:47;12.00;;;4.13;;
64615;SDS011;51027;42.162;24.754;2023-11-19T15:13:12;14.48;;;4.35;;
64615;SDS011;51027;42.162;24.754;2023-11-19T15:15:38;9.18;;;3.30;;
64615;SDS011;51027;42.162;24.754;2023-11-19T15:18:07;8.77;;;3.08;;